首页
METAR-TAF:

METAR-TAF

机场 :

開雲, 法屬圭亞那

開雲-羅尚博國際機場

纬度: 04-50N, 经度: 052-22W, 海拔: 105米

当前天气观测

该预报发布于14分钟前的14:30 UTC
风速7节,风向,在东北东南之间变化
温度 30°C
湿度 70%
气压 1014 hPa
能见度10公里或以上

METAR: SOCA 251430Z AUTO 10007KT 050V140 9999 FEW017/// SCT024/// BKN032/// 30/24 Q1014 TEMPO 3000 SHRA FEW010CB

时间: 11:44 (14:44 UTC)

预报

该预报发布于4小时和44分钟前的10:00 UTC
预报有效从25日的 12点(UTC)到 26日的 12点(UTC)
风速10节,风向东转东北
能见度10公里或以上
少量云层高于1000英尺
阴天层高于2000英尺
短暂存在
从 25日的 12点(UTC)到 26日的 12点(UTC)
能見度: 3000
少量云层高于1200英尺, 塔状积云.
阵雨
几率 30% :
短暂存在
从 25日的 15点(UTC)到 25日的 20点(UTC)
少量云层高于1000英尺, 积雨云.
雷暴, 雨
从 25日的 2300点(UTC)
风速2节,风向多变
能见度10公里或以上
多云层高于2000英尺
多云层高于4000英尺

TAF: SOCA 251000Z 2512/2612 07010KT 9999 FEW010 OVC020 TEMPO 2512/2612 3000 SHRA FEW012TCU PROB30 TEMPO 2515/2520 TSRA FEW010CB FM252300 VRB02KT 9999 BKN020 BKN040

超过4000个机场的气象观测和天气预报(METAR&TAF报告)。

可查询的气象台以黄色和红色小点在地图上表示。

将鼠标移到小点上方,可查看气象台名称。

然后点击查看天气观测和预报。

如需切换地图:点击带黑十字的绿色按钮放大地图;点击带横线的绿色按钮缩小地图;或者点击绿色箭头查看邻近地区的地图。


METAR-TAF: